Date,TemperatureHighF,TemperatureAvgF,TemperatureLowF,DewpointHighF,DewpointAvgF,DewpointLowF,HumidityHigh,HumidityAvg,HumidityLow,PressureMaxIn,PressureMinIn,WindSpeedMaxMPH,WindSpeedAvgMPH,GustSpeedMaxMPH,PrecipitationSumIn
2013-3-1,52,44,34,31,28,24,73,53,38,30.30,30.19,10,5,19,0.00
2013-3-2,53,41,31,29,23,17,70,51,30,30.43,30.23,10,5,17,0.00
2013-3-3,70,55,38,42,29,22,62,39,24,30.23,29.78,12,6,20,0.00
2013-3-4,87,68,55,48,42,26,62,43,11,29.78,29.55,16,5,24,0.00
2013-3-5,62,50,45,43,24,13,64,39,20,30.37,29.75,19,10,31,0.00
2013-3-6,59,48,37,27,18,9,52,33,14,30.46,30.20,8,4,16,0.00
2013-3-7,69,57,43,35,26,19,46,31,16,30.23,30.08,14,6,22,0.00
2013-3-8,63,58,54,55,49,35,82,73,41,30.17,29.96,12,8,18,0.01
2013-3-9,69,63,60,64,58,54,93,84,75,29.97,29.62,12,7,21,1.21
2013-3-10,60,51,42,57,38,29,93,64,48,30.08,29.69,17,8,27,0.19
2013-3-11,58,45,35,32,25,14,82,50,20,30.13,30.00,11,4,18,0.00
2013-3-12,64,54,40,30,25,19,61,35,21,30.29,30.02,14,4,22,0.00
2013-3-13,68,58,47,36,32,29,56,39,25,30.43,30.29,10,4,15,0.00
2013-3-14,77,63,50,46,39,30,57,42,30,30.33,30.14,9,4,19,0.00
2013-3-15,81,68,56,53,47,41,78,50,26,30.15,29.85,9,4,20,0.00
2013-3-16,80,70,58,58,53,47,80,57,42,29.85,29.65,12,7,26,0.00
2013-3-17,71,67,60,61,54,47,83,65,49,29.75,29.63,11,5,20,0.00
2013-3-18,68,62,57,62,46,37,88,59,40,29.99,29.60,13,6,18,0.00
2013-3-19,66,58,48,42,36,30,67,45,32,30.12,29.93,14,8,22,0.00
2013-3-20,65,58,49,35,30,22,57,37,20,30.29,30.01,11,4,15,0.00
2013-3-21,69,60,52,56,41,27,73,50,35,30.01,29.54,14,9,26,0.00
2013-3-22,66,53,46,60,48,41,89,82,64,29.84,29.53,11,6,20,0.00
2013-3-23,53,49,46,48,45,43,92,87,80,29.85,29.66,14,4,23,0.11
2013-3-24,51,45,38,46,28,17,90,54,31,30.18,29.81,18,11,28,0.01
2013-3-25,52,43,31,23,18,12,68,39,21,30.41,30.18,14,7,25,0.00
2013-3-26,56,45,34,24,19,14,52,36,22,30.51,30.30,6,2,12,0.00
2013-3-27,69,56,42,42,31,20,50,39,27,30.31,30.07,12,6,20,0.00
2013-3-28,69,62,51,56,50,41,79,66,50,30.20,30.06,11,6,19,0.00
2013-3-29,76,67,60,58,56,54,83,68,50,30.16,29.98,12,6,18,0.00
2013-3-30,77,67,56,63,59,53,92,76,57,30.08,29.85,13,4,19,0.82
2013-3-31,73,67,60,62,55,47,90,69,44,29.96,29.76,13,5,19,0.03